Emerald Princess — ZCDP8 — position and weather

sailwx.info

Track history (hours):
 
Tides and Currents Weather Stations Pressure Air Temp Water Temp Dewpoint Dewpoint Depression Visibility Wind Speed Wind Dir Waves Ship Positions

Emerald Princess

Last reported at 2017-Jul-18 06:00 UTC. Time now 2017-Jul-21 02:33 UTC.
Position N 53°48' W 131°06'.

Type: Passenger vessel. MMSI: 310531000.

Wind from 310 at 18 knots

Barometer 1021.5 mb
Air temperature 15.0 ° C
Visibility: greater than 10.8 NM
Dewpoint 11.3 ° C
Water temperature 13.0 ° C

Date/timePositionNaut miles runAvg speedWind from/ knotsBaromVisibWave heightAir tempDewpointWater temp
2017-Jul-18 06:00N 53°48' W 131°06'8716.2 310 / 181021.510.8 15.011.313.0
2017-Jul-18 00:37N 52°25' W 130°25'518.5
2017-Jul-18 00:19N 52°19' W 130°22'12617.2
2017-Jul-17 17:00N 50°24' W 129°00'4527.4 010 / 191022.110.8 13.310.713.0
2017-Jul-17 15:22N 49°54' W 128°08'4918.7
2017-Jul-17 12:45N 49°21' W 127°12'518.8
2017-Jul-17 12:30N 49°18' W 127°07'919.1
2017-Jul-17 12:01N 49°12' W 126°56'1019.1
2017-Jul-17 11:31N 49°06' W 126°45'1019.6
2017-Jul-17 11:00N 49°01' W 126°32'1019.8
2017-Jul-17 10:30N 48°56' W 126°19'1019.8
2017-Jul-17 10:01N 48°51' W 126°06'1019.8
2017-Jul-17 09:30N 48°46' W 125°53'1019.5
2017-Jul-17 09:00N 48°40' W 125°40'919.0
2017-Jul-17 08:30N 48°36' W 125°28'1019.4
2017-Jul-17 08:00N 48°31' W 125°16'1019.6
2017-Jul-17 07:30N 48°31' W 125°01'1020.0
2017-Jul-17 07:00N 48°31' W 124°46'1019.7
2017-Jul-17 06:31N 48°28' W 124°32'1019.1
2017-Jul-17 06:01N 48°24' W 124°19'7433.5
2017-Jul-17 06:00N 48°18' W 124°12'510.0 260 / 201022.810.8 18.0 8.313.0
2017-Jul-17 05:31N 48°20' W 124°06'918.2
2017-Jul-17 05:01N 48°17' W 123°53'917.9
2017-Jul-17 04:30N 48°16' W 123°39'816.5
2017-Jul-17 04:00N 48°13' W 123°28'612.0
2017-Jul-17 03:30N 48°08' W 123°22'714.9
2017-Jul-17 03:00N 48°11' W 123°12'918.3
2017-Jul-17 02:30N 48°12' W 122°58'918.3
2017-Jul-17 02:00N 48°10' W 122°45'918.1
2017-Jul-17 01:30N 48°03' W 122°38'1019.3
2017-Jul-17 01:00N 47°55' W 122°29'1019.6
2017-Jul-17 00:30N 47°45' W 122°26'815.3
2017-Jul-17 00:00N 47°37' W 122°25'1 2.9
2017-Jul-16 23:30N 47°38' W 122°23'0 0.0
2017-Jul-16 23:00N 47°38' W 122°23'0 0.0
2017-Jul-16 22:30N 47°38' W 122°23'0 0.0
2017-Jul-16 21:59N 47°38' W 122°23'0 0.0
2017-Jul-16 21:30N 47°38' W 122°23'0 0.0
2017-Jul-16 20:59N 47°38' W 122°23'0 0.0
2017-Jul-16 20:29N 47°38' W 122°23'0 0.0
2017-Jul-16 19:59N 47°38' W 122°23'0 0.0
2017-Jul-16 19:29N 47°38' W 122°23'0 0.0
2017-Jul-16 19:01N 47°38' W 122°23'0 0.0
2017-Jul-16 18:30N 47°38' W 122°23'0 0.0
2017-Jul-16 18:00N 47°38' W 122°23'0 0.0
2017-Jul-16 17:30N 47°38' W 122°23'0 0.0
2017-Jul-16 17:00N 47°38' W 122°23'0 0.0
2017-Jul-16 16:29N 47°38' W 122°23'0 0.0
2017-Jul-16 16:00N 47°38' W 122°23'0 0.0
2017-Jul-16 15:30N 47°38' W 122°23'0 0.0
2017-Jul-16 15:00N 47°38' W 122°23'0 0.0
2017-Jul-16 14:29N 47°38' W 122°23'0 0.0
2017-Jul-16 14:00N 47°38' W 122°23'0 0.0
2017-Jul-16 13:29N 47°38' W 122°23'0 0.0
2017-Jul-16 13:00N 47°38' W 122°23'1 1.5
2017-Jul-16 12:30N 47°37' W 122°23'5 9.5
2017-Jul-16 12:00N 47°40' W 122°28'918.2
2017-Jul-16 11:30N 47°49' W 122°28'918.2
2017-Jul-16 11:01N 47°57' W 122°34'918.3
2017-Jul-16 10:30N 48°06' W 122°40'917.4
2017-Jul-16 09:59N 48°11' W 122°50'1019.4
2017-Jul-16 09:29N 48°12' W 123°05'918.8
2017-Jul-16 09:00N 48°11' W 123°18'713.7
2017-Jul-16 08:30N 48°12' W 123°28'1019.3
2017-Jul-16 08:00N 48°21' W 123°26'4 2.7
2017-Jul-16 06:30N 48°25' W 123°24'0 0.0
2017-Jul-16 04:05N 48°25' W 123°24'0 0.0
2017-Jul-16 02:13N 48°25' W 123°24'0 0.0
2017-Jul-16 01:55N 48°25' W 123°24'0 0.0
2017-Jul-16 01:30N 48°25' W 123°24'1 1.1
2017-Jul-16 01:00N 48°25' W 123°24'3 6.7
2017-Jul-16 00:30N 48°21' W 123°24'611.4
2017-Jul-16 00:00N 48°16' W 123°26'714.0
2017-Jul-15 23:30N 48°14' W 123°36'816.8
2017-Jul-15 23:00N 48°14' W 123°49'816.2
2017-Jul-15 22:30N 48°15' W 124°01'918.3
2017-Jul-15 22:00N 48°19' W 124°13'917.5
2017-Jul-15 21:30N 48°23' W 124°25'917.1
2017-Jul-15 21:00N 48°27' W 124°37'816.8
2017-Jul-15 20:30N 48°29' W 124°49'816.4
2017-Jul-15 20:00N 48°29' W 125°01'816.7
2017-Jul-15 19:30N 48°30' W 125°14'816.3
2017-Jul-15 19:00N 48°34' W 125°25'917.2
2017-Jul-15 18:30N 48°39' W 125°35'918.7
2017-Jul-15 18:00N 48°44' W 125°47'918.5
2017-Jul-15 17:30N 48°48' W 125°59'918.5
2017-Jul-15 17:00N 48°53' W 126°11'9560.6
2017-Jul-15 17:00N 48°48' W 126°00'1837.7 220 / 111022.610.8 15.010.812.0
2017-Jul-15 16:30N 48°58' W 126°23'1019.0
2017-Jul-15 16:00N 49°03' W 126°36'1019.5
2017-Jul-15 15:30N 49°08' W 126°49'1019.9
2017-Jul-15 15:00N 49°14' W 127°00'35018.4
2017-Jul-14 20:00N 53°30' W 133°24'34819.3 1021.710.8 12.4 9.7
2017-Jul-14 02:00N 59°12' W 135°18'   140 / 121018.910.8 13.6 6.113.0
2017-Jul-11 04:00N 53°12' W 130°48'5618.6 180 / 101018.710.8 15.0 9.214.0
2017-Jul-11 01:00N 52°18' W 130°24'21617.6 220 / 171019.710.8 14.3 9.112.0
2017-Jul-10 12:45N 49°20' W 127°11'417.5
2017-Jul-10 12:31N 49°18' W 127°06'917.5
2017-Jul-10 12:00N 49°12' W 126°56'271864.5
2017-Jul-10 12:00N 48°54' W 126°24'1939.3 310 / 331017.610.8 13.010.1 9.0
2017-Jul-10 11:31N 49°06' W 126°46'917.6
2017-Jul-10 11:00N 49°02' W 126°34'1417.6
2017-Jul-10 10:13N 48°55' W 126°16'417.8
2017-Jul-10 10:00N 48°53' W 126°11'918.2
2017-Jul-10 09:31N 48°48' W 125°60'918.2
2017-Jul-10 09:00N 48°43' W 125°48'918.1
2017-Jul-10 08:30N 48°38' W 125°36'918.5
2017-Jul-10 08:00N 48°33' W 125°25'918.3
2017-Jul-10 07:30N 48°31' W 125°11'1019.2
2017-Jul-10 07:00N 48°31' W 124°57'1019.2
2017-Jul-10 06:30N 48°30' W 124°42'1019.2
2017-Jul-10 06:00N 48°27' W 124°29'211454.3
2017-Jul-10 06:00N 48°48' W 124°30'2754.9 250 / 181018.7 5.4 12.010.112.0
2017-Jul-10 05:30N 48°23' W 124°16'918.7
2017-Jul-10 05:00N 48°20' W 124°03'918.6
2017-Jul-10 04:30N 48°17' W 123°50'918.5
2017-Jul-10 04:00N 48°15' W 123°36'917.7
2017-Jul-10 03:30N 48°12' W 123°24'5 9.3
2017-Jul-10 03:00N 48°09' W 123°18'918.3
2017-Jul-10 02:31N 48°13' W 123°05'1018.8
2017-Jul-10 01:59N 48°12' W 122°50'917.8
2017-Jul-10 01:28N 48°06' W 122°39'918.5
2017-Jul-10 01:00N 47°58' W 122°35'918.2
2017-Jul-10 00:31N 47°51' W 122°28'1019.1
2017-Jul-10 00:01N 47°41' W 122°27'5 9.1
2017-Jul-09 23:30N 47°37' W 122°23'0 0.6
2017-Jul-09 23:00N 47°38' W 122°23'0 0.0
2017-Jul-09 22:30N 47°38' W 122°23'0 0.0
2017-Jul-09 22:00N 47°38' W 122°23'0 0.0
2017-Jul-09 21:30N 47°38' W 122°23'0 0.0
2017-Jul-09 20:57N 47°38' W 122°23'0 0.0
2017-Jul-09 20:30N 47°38' W 122°23'0 0.0
2017-Jul-09 20:00N 47°38' W 122°23'0 0.0
2017-Jul-09 19:30N 47°38' W 122°23'0 0.0
2017-Jul-09 19:00N 47°38' W 122°23'0 0.0
2017-Jul-09 18:30N 47°38' W 122°23'0 0.0
2017-Jul-09 18:00N 47°38' W 122°23'0 0.0
2017-Jul-09 17:30N 47°38' W 122°23'0 0.0
2017-Jul-09 17:00N 47°38' W 122°23'0 0.0
2017-Jul-09 16:30N 47°38' W 122°23'0 0.0
2017-Jul-09 16:00N 47°38' W 122°23'0 0.0
2017-Jul-09 15:30N 47°38' W 122°23'0 0.0
2017-Jul-09 15:00N 47°38' W 122°23'0 0.0
2017-Jul-09 14:29N 47°38' W 122°23'0 0.0
2017-Jul-09 13:59N 47°38' W 122°23'0 0.0
2017-Jul-09 13:29N 47°38' W 122°23'0 0.0
2017-Jul-09 12:59N 47°38' W 122°23'1 1.5
2017-Jul-09 12:30N 47°37' W 122°23'4 8.5
2017-Jul-09 12:00N 47°40' W 122°28'816.9
2017-Jul-09 11:30N 47°48' W 122°27'917.5
2017-Jul-09 11:00N 47°56' W 122°32'816.6
2017-Jul-09 10:30N 48°03' W 122°39'918.5
2017-Jul-09 10:00N 48°11' W 122°47'1121.9
2017-Jul-09 09:30N 48°12' W 123°03'1020.3
2017-Jul-09 09:00N 48°11' W 123°19'713.2
2017-Jul-09 08:30N 48°11' W 123°29'918.2
2017-Jul-09 08:00N 48°20' W 123°26'5 9.7
2017-Jul-09 07:30N 48°25' W 123°24'0 0.1
2017-Jul-09 04:20N 48°25' W 123°24'0 0.0
2017-Jul-09 03:56N 48°25' W 123°24'0 0.0
2017-Jul-09 03:26N 48°25' W 123°24'4 8.7
2017-Jul-09 03:00N 48°24' W 123°18'454.5 220 / 191021.8 5.4 19.0 8.515.0
2017-Jul-09 02:55N 48°25' W 123°24'0 0.0
2017-Jul-09 01:49N 48°25' W 123°24'0 1.1
2017-Jul-09 01:29N 48°25' W 123°24'2 4.3
2017-Jul-09 01:00N 48°23' W 123°24'3 6.8
2017-Jul-09 00:30N 48°19' W 123°25'4 8.8
2017-Jul-09 00:00N 48°15' W 123°27'510.4
2017-Jul-08 23:30N 48°14' W 123°34'612.9
2017-Jul-08 23:00N 48°13' W 123°44'815.7
2017-Jul-08 22:30N 48°13' W 123°56'917.9
2017-Jul-08 22:00N 48°17' W 124°08'917.9
2017-Jul-08 21:30N 48°21' W 124°20'917.7
2017-Jul-08 21:00N 48°25' W 124°32'917.1
2017-Jul-08 20:30N 48°28' W 124°44'917.1
2017-Jul-08 20:00N 48°29' W 124°57'917.2
2017-Jul-08 19:30N 48°29' W 125°10'815.9
2017-Jul-08 19:00N 48°33' W 125°20'7597.0
2017-Jul-08 19:00N 48°36' W 125°30'1 1.8 310 / 81021.8 5.4 14.011.215.0
2017-Jul-08 18:30N 48°37' W 125°30'917.3
2017-Jul-08 18:00N 48°41' W 125°42'816.8
2017-Jul-08 17:30N 48°45' W 125°53'816.6
2017-Jul-08 17:00N 48°50' W 126°03'816.5
2017-Jul-08 16:30N 48°54' W 126°14'816.3
2017-Jul-08 16:00N 48°58' W 126°25'917.0
2017-Jul-08 15:30N 49°03' W 126°36'917.1
2017-Jul-08 15:00N 49°07' W 126°47'1717.4
2017-Jul-08 14:00N 49°19' W 127°08'917.8
2017-Jul-08 13:28N 49°25' W 127°18'613.3
2017-Jul-08 13:00N 49°30' W 127°24'13419.2 300 / 41023.210.8 13.0 9.114.0
2017-Jul-08 06:00N 51°00' W 130°00'   250 / 101024.110.8 13.0 7.915.0
Track history (hours):
 
Tides and Currents Weather Stations Pressure Air Temp Water Temp Dewpoint Dewpoint Depression Visibility Wind Speed Wind Dir Waves Ship Positions

Emerald Princess

Last reported at 2017-Jul-18 06:00 UTC. Time now 2017-Jul-21 02:33 UTC.
Position N 53°48' W 131°06'.

Type: Passenger vessel. MMSI: 310531000.

Wind from 310 at 18 knots

Barometer 1021.5 mb
Air temperature 15.0 ° C
Visibility: greater than 10.8 NM
Dewpoint 11.3 ° C
Water temperature 13.0 ° C

Date/timePositionNaut miles runAvg speedWind from/ knotsBaromVisibWave heightAir tempDewpointWater temp
2017-Jul-18 06:00N 53°48' W 131°06'8716.2 310 / 181021.510.8 15.011.313.0
2017-Jul-18 00:37N 52°25' W 130°25'518.5
2017-Jul-18 00:19N 52°19' W 130°22'12617.2
2017-Jul-17 17:00N 50°24' W 129°00'4527.4 010 / 191022.110.8 13.310.713.0
2017-Jul-17 15:22N 49°54' W 128°08'4918.7
2017-Jul-17 12:45N 49°21' W 127°12'518.8
2017-Jul-17 12:30N 49°18' W 127°07'919.1
2017-Jul-17 12:01N 49°12' W 126°56'1019.1
2017-Jul-17 11:31N 49°06' W 126°45'1019.6
2017-Jul-17 11:00N 49°01' W 126°32'1019.8
2017-Jul-17 10:30N 48°56' W 126°19'1019.8
2017-Jul-17 10:01N 48°51' W 126°06'1019.8
2017-Jul-17 09:30N 48°46' W 125°53'1019.5
2017-Jul-17 09:00N 48°40' W 125°40'919.0
2017-Jul-17 08:30N 48°36' W 125°28'1019.4
2017-Jul-17 08:00N 48°31' W 125°16'1019.6
2017-Jul-17 07:30N 48°31' W 125°01'1020.0
2017-Jul-17 07:00N 48°31' W 124°46'1019.7
2017-Jul-17 06:31N 48°28' W 124°32'1019.1
2017-Jul-17 06:01N 48°24' W 124°19'7433.5
2017-Jul-17 06:00N 48°18' W 124°12'510.0 260 / 201022.810.8 18.0 8.313.0
2017-Jul-17 05:31N 48°20' W 124°06'918.2
2017-Jul-17 05:01N 48°17' W 123°53'917.9
2017-Jul-17 04:30N 48°16' W 123°39'816.5
2017-Jul-17 04:00N 48°13' W 123°28'612.0
2017-Jul-17 03:30N 48°08' W 123°22'714.9
2017-Jul-17 03:00N 48°11' W 123°12'918.3
2017-Jul-17 02:30N 48°12' W 122°58'918.3
2017-Jul-17 02:00N 48°10' W 122°45'918.1
2017-Jul-17 01:30N 48°03' W 122°38'1019.3
2017-Jul-17 01:00N 47°55' W 122°29'1019.6
2017-Jul-17 00:30N 47°45' W 122°26'815.3
2017-Jul-17 00:00N 47°37' W 122°25'1 2.9
2017-Jul-16 23:30N 47°38' W 122°23'0 0.0
2017-Jul-16 23:00N 47°38' W 122°23'0 0.0
2017-Jul-16 22:30N 47°38' W 122°23'0 0.0
2017-Jul-16 21:59N 47°38' W 122°23'0 0.0
2017-Jul-16 21:30N 47°38' W 122°23'0 0.0
2017-Jul-16 20:59N 47°38' W 122°23'0 0.0
2017-Jul-16 20:29N 47°38' W 122°23'0 0.0
2017-Jul-16 19:59N 47°38' W 122°23'0 0.0
2017-Jul-16 19:29N 47°38' W 122°23'0 0.0
2017-Jul-16 19:01N 47°38' W 122°23'0 0.0
2017-Jul-16 18:30N 47°38' W 122°23'0 0.0
2017-Jul-16 18:00N 47°38' W 122°23'0 0.0
2017-Jul-16 17:30N 47°38' W 122°23'0 0.0
2017-Jul-16 17:00N 47°38' W 122°23'0 0.0
2017-Jul-16 16:29N 47°38' W 122°23'0 0.0
2017-Jul-16 16:00N 47°38' W 122°23'0 0.0
2017-Jul-16 15:30N 47°38' W 122°23'0 0.0
2017-Jul-16 15:00N 47°38' W 122°23'0 0.0
2017-Jul-16 14:29N 47°38' W 122°23'0 0.0
2017-Jul-16 14:00N 47°38' W 122°23'0 0.0
2017-Jul-16 13:29N 47°38' W 122°23'0 0.0
2017-Jul-16 13:00N 47°38' W 122°23'1 1.5
2017-Jul-16 12:30N 47°37' W 122°23'5 9.5
2017-Jul-16 12:00N 47°40' W 122°28'918.2
2017-Jul-16 11:30N 47°49' W 122°28'918.2
2017-Jul-16 11:01N 47°57' W 122°34'918.3
2017-Jul-16 10:30N 48°06' W 122°40'917.4
2017-Jul-16 09:59N 48°11' W 122°50'1019.4
2017-Jul-16 09:29N 48°12' W 123°05'918.8
2017-Jul-16 09:00N 48°11' W 123°18'713.7
2017-Jul-16 08:30N 48°12' W 123°28'1019.3
2017-Jul-16 08:00N 48°21' W 123°26'4 2.7
2017-Jul-16 06:30N 48°25' W 123°24'0 0.0
2017-Jul-16 04:05N 48°25' W 123°24'0 0.0
2017-Jul-16 02:13N 48°25' W 123°24'0 0.0
2017-Jul-16 01:55N 48°25' W 123°24'0 0.0
2017-Jul-16 01:30N 48°25' W 123°24'1 1.1
2017-Jul-16 01:00N 48°25' W 123°24'3 6.7
2017-Jul-16 00:30N 48°21' W 123°24'611.4
2017-Jul-16 00:00N 48°16' W 123°26'714.0
2017-Jul-15 23:30N 48°14' W 123°36'816.8
2017-Jul-15 23:00N 48°14' W 123°49'816.2
2017-Jul-15 22:30N 48°15' W 124°01'918.3
2017-Jul-15 22:00N 48°19' W 124°13'917.5
2017-Jul-15 21:30N 48°23' W 124°25'917.1
2017-Jul-15 21:00N 48°27' W 124°37'816.8
2017-Jul-15 20:30N 48°29' W 124°49'816.4
2017-Jul-15 20:00N 48°29' W 125°01'816.7
2017-Jul-15 19:30N 48°30' W 125°14'816.3
2017-Jul-15 19:00N 48°34' W 125°25'917.2
2017-Jul-15 18:30N 48°39' W 125°35'918.7
2017-Jul-15 18:00N 48°44' W 125°47'918.5
2017-Jul-15 17:30N 48°48' W 125°59'918.5
2017-Jul-15 17:00N 48°53' W 126°11'9560.6
2017-Jul-15 17:00N 48°48' W 126°00'1837.7 220 / 111022.610.8 15.010.812.0
2017-Jul-15 16:30N 48°58' W 126°23'1019.0
2017-Jul-15 16:00N 49°03' W 126°36'1019.5
2017-Jul-15 15:30N 49°08' W 126°49'1019.9
2017-Jul-15 15:00N 49°14' W 127°00'35018.4
2017-Jul-14 20:00N 53°30' W 133°24'34819.3 1021.710.8 12.4 9.7
2017-Jul-14 02:00N 59°12' W 135°18'   140 / 121018.910.8 13.6 6.113.0
2017-Jul-11 04:00N 53°12' W 130°48'5618.6 180 / 101018.710.8 15.0 9.214.0
2017-Jul-11 01:00N 52°18' W 130°24'21617.6 220 / 171019.710.8 14.3 9.112.0
2017-Jul-10 12:45N 49°20' W 127°11'417.5
2017-Jul-10 12:31N 49°18' W 127°06'917.5
2017-Jul-10 12:00N 49°12' W 126°56'271864.5
2017-Jul-10 12:00N 48°54' W 126°24'1939.3 310 / 331017.610.8 13.010.1 9.0
2017-Jul-10 11:31N 49°06' W 126°46'917.6
2017-Jul-10 11:00N 49°02' W 126°34'1417.6
2017-Jul-10 10:13N 48°55' W 126°16'417.8
2017-Jul-10 10:00N 48°53' W 126°11'918.2
2017-Jul-10 09:31N 48°48' W 125°60'918.2
2017-Jul-10 09:00N 48°43' W 125°48'918.1
2017-Jul-10 08:30N 48°38' W 125°36'918.5
2017-Jul-10 08:00N 48°33' W 125°25'918.3
2017-Jul-10 07:30N 48°31' W 125°11'1019.2
2017-Jul-10 07:00N 48°31' W 124°57'1019.2
2017-Jul-10 06:30N 48°30' W 124°42'1019.2
2017-Jul-10 06:00N 48°27' W 124°29'211454.3
2017-Jul-10 06:00N 48°48' W 124°30'2754.9 250 / 181018.7 5.4 12.010.112.0
2017-Jul-10 05:30N 48°23' W 124°16'918.7
2017-Jul-10 05:00N 48°20' W 124°03'918.6
2017-Jul-10 04:30N 48°17' W 123°50'918.5
2017-Jul-10 04:00N 48°15' W 123°36'917.7
2017-Jul-10 03:30N 48°12' W 123°24'5 9.3
2017-Jul-10 03:00N 48°09' W 123°18'918.3
2017-Jul-10 02:31N 48°13' W 123°05'1018.8
2017-Jul-10 01:59N 48°12' W 122°50'917.8
2017-Jul-10 01:28N 48°06' W 122°39'918.5
2017-Jul-10 01:00N 47°58' W 122°35'918.2
2017-Jul-10 00:31N 47°51' W 122°28'1019.1
2017-Jul-10 00:01N 47°41' W 122°27'5 9.1
2017-Jul-09 23:30N 47°37' W 122°23'0 0.6
2017-Jul-09 23:00N 47°38' W 122°23'0 0.0
2017-Jul-09 22:30N 47°38' W 122°23'0 0.0
2017-Jul-09 22:00N 47°38' W 122°23'0 0.0
2017-Jul-09 21:30N 47°38' W 122°23'0 0.0
2017-Jul-09 20:57N 47°38' W 122°23'0 0.0
2017-Jul-09 20:30N 47°38' W 122°23'0 0.0
2017-Jul-09 20:00N 47°38' W 122°23'0 0.0
2017-Jul-09 19:30N 47°38' W 122°23'0 0.0
2017-Jul-09 19:00N 47°38' W 122°23'0 0.0
2017-Jul-09 18:30N 47°38' W 122°23'0 0.0
2017-Jul-09 18:00N 47°38' W 122°23'0 0.0
2017-Jul-09 17:30N 47°38' W 122°23'0 0.0
2017-Jul-09 17:00N 47°38' W 122°23'0 0.0
2017-Jul-09 16:30N 47°38' W 122°23'0 0.0
2017-Jul-09 16:00N 47°38' W 122°23'0 0.0
2017-Jul-09 15:30N 47°38' W 122°23'0 0.0
2017-Jul-09 15:00N 47°38' W 122°23'0 0.0
2017-Jul-09 14:29N 47°38' W 122°23'0 0.0
2017-Jul-09 13:59N 47°38' W 122°23'0 0.0
2017-Jul-09 13:29N 47°38' W 122°23'0 0.0
2017-Jul-09 12:59N 47°38' W 122°23'1 1.5
2017-Jul-09 12:30N 47°37' W 122°23'4 8.5
2017-Jul-09 12:00N 47°40' W 122°28'816.9
2017-Jul-09 11:30N 47°48' W 122°27'917.5
2017-Jul-09 11:00N 47°56' W 122°32'816.6
2017-Jul-09 10:30N 48°03' W 122°39'918.5
2017-Jul-09 10:00N 48°11' W 122°47'1121.9
2017-Jul-09 09:30N 48°12' W 123°03'1020.3
2017-Jul-09 09:00N 48°11' W 123°19'713.2
2017-Jul-09 08:30N 48°11' W 123°29'918.2
2017-Jul-09 08:00N 48°20' W 123°26'5 9.7
2017-Jul-09 07:30N 48°25' W 123°24'0 0.1
2017-Jul-09 04:20N 48°25' W 123°24'0 0.0
2017-Jul-09 03:56N 48°25' W 123°24'0 0.0
2017-Jul-09 03:26N 48°25' W 123°24'4 8.7
2017-Jul-09 03:00N 48°24' W 123°18'454.5 220 / 191021.8 5.4 19.0 8.515.0
2017-Jul-09 02:55N 48°25' W 123°24'0 0.0
2017-Jul-09 01:49N 48°25' W 123°24'0 1.1
2017-Jul-09 01:29N 48°25' W 123°24'2 4.3
2017-Jul-09 01:00N 48°23' W 123°24'3 6.8
2017-Jul-09 00:30N 48°19' W 123°25'4 8.8
2017-Jul-09 00:00N 48°15' W 123°27'510.4
2017-Jul-08 23:30N 48°14' W 123°34'612.9
2017-Jul-08 23:00N 48°13' W 123°44'815.7
2017-Jul-08 22:30N 48°13' W 123°56'917.9
2017-Jul-08 22:00N 48°17' W 124°08'917.9
2017-Jul-08 21:30N 48°21' W 124°20'917.7
2017-Jul-08 21:00N 48°25' W 124°32'917.1
2017-Jul-08 20:30N 48°28' W 124°44'917.1
2017-Jul-08 20:00N 48°29' W 124°57'917.2
2017-Jul-08 19:30N 48°29' W 125°10'815.9
2017-Jul-08 19:00N 48°33' W 125°20'7597.0
2017-Jul-08 19:00N 48°36' W 125°30'1 1.8 310 / 81021.8 5.4 14.011.215.0
2017-Jul-08 18:30N 48°37' W 125°30'917.3
2017-Jul-08 18:00N 48°41' W 125°42'816.8
2017-Jul-08 17:30N 48°45' W 125°53'816.6
2017-Jul-08 17:00N 48°50' W 126°03'816.5
2017-Jul-08 16:30N 48°54' W 126°14'816.3
2017-Jul-08 16:00N 48°58' W 126°25'917.0
2017-Jul-08 15:30N 49°03' W 126°36'917.1
2017-Jul-08 15:00N 49°07' W 126°47'1717.4
2017-Jul-08 14:00N 49°19' W 127°08'917.8
2017-Jul-08 13:28N 49°25' W 127°18'613.3
2017-Jul-08 13:00N 49°30' W 127°24'13419.2 300 / 41023.210.8 13.0 9.114.0
2017-Jul-08 06:00N 51°00' W 130°00'   250 / 101024.110.8 13.0 7.915.0

Dump ship's entire track history